createdAt,value
2023-02-23T00:01:56.024Z,7.75
2023-02-23T00:04:23.702Z,7.62
2023-02-23T00:06:52.261Z,7.70
2023-02-23T00:09:24.916Z,7.69
2023-02-23T00:11:53.168Z,7.59
2023-02-23T00:14:19.659Z,7.56
2023-02-23T00:16:46.348Z,7.67
2023-02-23T00:19:14.070Z,7.41
2023-02-23T00:21:41.557Z,7.44
2023-02-23T00:24:10.208Z,7.35
2023-02-23T00:26:39.325Z,7.56
2023-02-23T00:29:08.741Z,7.65
2023-02-23T00:31:35.393Z,7.32
2023-02-23T00:34:03.598Z,7.22
2023-02-23T00:36:35.129Z,7.18
2023-02-23T00:39:18.845Z,7.03
2023-02-23T00:41:46.662Z,6.89
2023-02-23T00:44:16.970Z,7.06
2023-02-23T00:46:45.195Z,7.04
2023-02-23T00:49:13.348Z,7.06
2023-02-23T00:51:39.757Z,6.97
2023-02-23T00:54:07.230Z,7.08
2023-02-23T00:56:33.964Z,7.23
2023-02-23T00:59:01.398Z,7.05
2023-02-23T01:01:27.904Z,6.87
2023-02-23T01:03:54.533Z,7.01
2023-02-23T01:06:20.984Z,7.23
2023-02-23T01:08:50.114Z,7.19
2023-02-23T01:11:21.200Z,7.19
2023-02-23T01:13:48.929Z,7.15
2023-02-23T01:16:17.948Z,7.01
2023-02-23T01:18:45.600Z,6.92
2023-02-23T01:21:27.907Z,6.91
2023-02-23T01:23:55.250Z,7.06
2023-02-23T01:26:24.714Z,7.00
2023-02-23T01:28:56.488Z,6.89
2023-02-23T01:31:25.280Z,7.05
2023-02-23T01:33:59.997Z,6.82
2023-02-23T01:36:33.366Z,6.84
2023-02-23T01:39:00.101Z,6.78
2023-02-23T01:41:29.780Z,6.67
2023-02-23T01:43:57.463Z,6.91
2023-02-23T01:46:23.843Z,6.79
2023-02-23T01:48:56.279Z,6.75
2023-02-23T01:51:27.598Z,6.78
2023-02-23T01:54:18.641Z,6.79
2023-02-23T01:56:57.888Z,6.65
2023-02-23T01:59:34.170Z,6.82
2023-02-23T02:02:00.941Z,6.89
2023-02-23T02:04:32.384Z,6.69
2023-02-23T02:07:01.438Z,6.64
2023-02-23T02:09:28.406Z,6.77
2023-02-23T02:11:54.794Z,6.45
2023-02-23T02:14:27.324Z,6.60
2023-02-23T02:17:20.845Z,6.75
2023-02-23T02:19:59.476Z,6.75
2023-02-23T02:22:36.586Z,6.66
2023-02-23T02:25:31.642Z,6.60
2023-02-23T02:28:08.793Z,6.86
2023-02-23T02:31:04.101Z,6.76
2023-02-23T02:33:52.328Z,6.60
2023-02-23T02:36:43.526Z,6.50
2023-02-23T02:39:38.040Z,6.59
2023-02-23T02:42:29.897Z,6.26
2023-02-23T02:45:17.569Z,6.12
2023-02-23T02:47:58.331Z,6.29
2023-02-23T02:50:31.293Z,6.23
2023-02-23T02:53:07.078Z,6.46
2023-02-23T02:55:37.105Z,6.32
2023-02-23T02:58:07.932Z,6.31
2023-02-23T03:00:58.821Z,6.44
2023-02-23T03:04:02.567Z,6.17
2023-02-23T03:06:52.842Z,6.14
2023-02-23T03:09:40.829Z,6.32
2023-02-23T03:12:53.891Z,6.25
2023-02-23T03:16:02.526Z,6.52
2023-02-23T03:19:06.602Z,6.38
2023-02-23T03:22:17.388Z,6.35
2023-02-23T03:25:18.914Z,6.34
2023-02-23T03:28:23.062Z,6.17
2023-02-23T03:31:28.879Z,6.09
2023-02-23T03:34:29.048Z,6.28
2023-02-23T03:37:35.296Z,6.34
2023-02-23T03:40:50.996Z,6.45
2023-02-23T03:43:45.497Z,6.31
2023-02-23T03:46:33.115Z,6.33
2023-02-23T03:49:21.977Z,6.08
2023-02-23T03:52:15.263Z,6.31
2023-02-23T03:55:12.152Z,6.30
2023-02-23T03:57:59.880Z,6.26
2023-02-23T04:00:53.117Z,6.27
2023-02-23T04:03:39.584Z,6.32
2023-02-23T04:06:29.786Z,6.25
2023-02-23T04:09:18.110Z,6.26
2023-02-23T04:12:13.085Z,6.22
2023-02-23T04:14:52.537Z,6.33
2023-02-23T04:17:20.181Z,6.40
2023-02-23T04:19:51.462Z,6.41
2023-02-23T04:22:17.932Z,6.39
2023-02-23T04:24:46.112Z,6.51
2023-02-23T04:27:13.856Z,6.44
2023-02-23T04:29:40.973Z,6.32
2023-02-23T04:32:10.871Z,6.39
2023-02-23T04:34:37.289Z,6.33
2023-02-23T04:37:03.751Z,6.45
2023-02-23T04:39:30.284Z,6.54
2023-02-23T04:41:56.657Z,6.55
2023-02-23T04:44:23.039Z,6.49
2023-02-23T04:46:49.415Z,6.46
2023-02-23T04:49:15.856Z,6.53
2023-02-23T04:51:42.256Z,6.32
2023-02-23T04:54:09.323Z,6.38
2023-02-23T04:56:35.888Z,6.26
2023-02-23T04:59:02.376Z,6.48
2023-02-23T05:01:29.373Z,6.47
2023-02-23T05:03:55.855Z,6.38
2023-02-23T05:06:22.257Z,6.07
2023-02-23T05:08:48.691Z,6.12
2023-02-23T05:11:16.138Z,6.03
2023-02-23T05:13:42.601Z,6.22
2023-02-23T05:16:09.332Z,6.04
2023-02-23T05:18:35.787Z,6.04
2023-02-23T05:21:04.571Z,6.25
2023-02-23T05:23:31.217Z,6.22
2023-02-23T05:26:09.393Z,6.28
2023-02-23T05:28:39.722Z,6.18
2023-02-23T05:31:06.864Z,6.26
2023-02-23T05:33:34.068Z,6.33
2023-02-23T05:36:05.616Z,6.20
2023-02-23T05:38:31.987Z,6.05
2023-02-23T05:40:58.342Z,5.95
2023-02-23T05:43:24.802Z,6.05
2023-02-23T05:45:51.220Z,5.97
2023-02-23T05:48:17.604Z,5.97
2023-02-23T05:50:43.972Z,5.86
2023-02-23T05:53:10.789Z,5.94
2023-02-23T05:55:37.519Z,6.08
2023-02-23T05:58:04.005Z,6.12
2023-02-23T06:00:30.580Z,6.11
2023-02-23T06:02:57.023Z,6.09
2023-02-23T06:05:23.436Z,6.03
2023-02-23T06:07:50.006Z,6.10
2023-02-23T06:10:16.787Z,6.14
2023-02-23T06:12:43.180Z,6.09
2023-02-23T06:15:09.983Z,6.11
2023-02-23T06:17:36.501Z,6.21
2023-02-23T06:20:04.930Z,6.23
2023-02-23T06:22:32.469Z,6.13
2023-02-23T06:24:58.878Z,6.25
2023-02-23T06:27:26.186Z,6.28
2023-02-23T06:29:52.567Z,6.15
2023-02-23T06:32:19.033Z,6.42
2023-02-23T06:34:45.491Z,6.42
2023-02-23T06:37:12.043Z,6.33
2023-02-23T06:39:38.535Z,6.47
2023-02-23T06:42:08.013Z,6.42
2023-02-23T06:44:35.675Z,6.31
2023-02-23T06:47:05.625Z,6.47
2023-02-23T06:49:32.553Z,6.47
2023-02-23T06:51:59.075Z,6.33
2023-02-23T06:54:26.369Z,6.40
2023-02-23T06:56:53.224Z,6.34
2023-02-23T06:59:19.756Z,6.15
2023-02-23T07:01:46.166Z,6.26
2023-02-23T07:04:14.858Z,6.16
2023-02-23T07:06:42.738Z,6.21
2023-02-23T07:09:09.163Z,6.21
2023-02-23T07:11:35.568Z,6.43
2023-02-23T07:14:02.068Z,6.46
2023-02-23T07:16:29.535Z,6.44
2023-02-23T07:18:56.314Z,6.38
2023-02-23T07:21:23.000Z,6.42
2023-02-23T07:23:49.861Z,6.47
2023-02-23T07:26:18.477Z,6.48
2023-02-23T07:28:44.918Z,6.39
2023-02-23T07:31:11.454Z,6.20
2023-02-23T07:33:37.975Z,6.29
2023-02-23T07:36:04.714Z,6.46
2023-02-23T07:38:31.265Z,6.46
2023-02-23T07:40:57.651Z,6.47
2023-02-23T07:43:24.210Z,6.54
2023-02-23T07:45:51.659Z,6.55
2023-02-23T07:48:19.023Z,6.30
2023-02-23T07:50:45.585Z,6.50
2023-02-23T07:53:15.166Z,6.46
2023-02-23T07:55:41.696Z,6.17
2023-02-23T07:58:09.774Z,6.26
2023-02-23T08:00:39.995Z,6.17
2023-02-23T08:03:07.503Z,5.95
2023-02-23T08:05:33.945Z,6.27
2023-02-23T08:08:01.300Z,6.19
2023-02-23T08:10:27.727Z,6.15
2023-02-23T08:12:54.254Z,6.23
2023-02-23T08:15:21.098Z,6.12
2023-02-23T08:17:47.502Z,5.85
2023-02-23T08:20:13.980Z,5.85
2023-02-23T08:22:49.374Z,6.03
2023-02-23T08:25:17.252Z,6.18
2023-02-23T08:27:43.640Z,6.13
2023-02-23T08:30:10.744Z,6.15
2023-02-23T08:32:37.323Z,6.33
2023-02-23T08:35:05.452Z,6.42
2023-02-23T08:37:32.085Z,6.40
2023-02-23T08:39:59.194Z,6.48
2023-02-23T08:42:25.598Z,6.61
2023-02-23T08:44:54.100Z,6.62
2023-02-23T08:47:21.942Z,6.68
2023-02-23T08:49:48.943Z,6.68
2023-02-23T08:52:15.504Z,6.62
2023-02-23T08:54:48.370Z,6.86
2023-02-23T08:57:14.862Z,6.94
2023-02-23T08:59:44.376Z,6.78
2023-02-23T09:02:12.933Z,6.87
2023-02-23T09:04:41.859Z,7.27
2023-02-23T09:07:13.047Z,7.37
2023-02-23T09:09:39.648Z,7.35
2023-02-23T09:12:10.199Z,7.53
2023-02-23T09:19:56.733Z,7.40
2023-02-23T09:22:24.250Z,7.44
2023-02-23T09:24:50.599Z,7.02
2023-02-23T09:27:17.016Z,7.21
2023-02-23T09:29:44.395Z,7.25
2023-02-23T09:32:12.325Z,7.46
2023-02-23T09:34:38.773Z,7.44
2023-02-23T09:37:05.313Z,7.51
2023-02-23T09:39:38.135Z,7.60
2023-02-23T09:42:25.642Z,7.77
2023-02-23T09:45:03.762Z,7.64
2023-02-23T09:47:41.520Z,7.70
2023-02-23T09:50:22.623Z,7.67
2023-02-23T09:52:57.508Z,7.82
2023-02-23T09:55:25.498Z,8.08
2023-02-23T09:57:52.509Z,8.18
2023-02-23T10:00:27.449Z,8.33
2023-02-23T10:03:31.337Z,8.28
2023-02-23T10:06:06.365Z,8.40
2023-02-23T10:08:50.040Z,8.61
2023-02-23T10:11:45.764Z,8.70
2023-02-23T10:15:02.215Z,8.93
2023-02-23T10:17:41.869Z,8.93
2023-02-23T10:20:35.042Z,8.99
2023-02-23T10:23:06.795Z,8.99
2023-02-23T10:25:38.073Z,8.90
2023-02-23T10:28:04.696Z,9.04
2023-02-23T10:30:33.625Z,9.26
2023-02-23T10:33:07.345Z,9.38
2023-02-23T10:35:34.278Z,9.25
2023-02-23T10:38:02.077Z,9.22
2023-02-23T10:40:32.947Z,9.16
2023-02-23T10:43:03.494Z,9.33
2023-02-23T10:45:38.111Z,9.45
2023-02-23T10:48:06.383Z,9.19
2023-02-23T10:50:36.199Z,9.35
2023-02-23T10:53:18.494Z,9.56
2023-02-23T10:55:47.374Z,9.67
2023-02-23T10:58:19.909Z,9.81
2023-02-23T11:00:57.009Z,9.89
2023-02-23T11:03:35.575Z,9.59
2023-02-23T11:06:02.313Z,9.98
2023-02-23T11:08:35.991Z,9.97
2023-02-23T11:11:25.327Z,9.23
2023-02-23T11:13:52.262Z,8.94
2023-02-23T11:16:22.391Z,9.15
2023-02-23T11:18:51.145Z,9.26
2023-02-23T11:21:23.250Z,9.78
2023-02-23T11:23:53.506Z,9.95
2023-02-23T11:26:28.449Z,9.79
2023-02-23T11:28:59.691Z,9.73
2023-02-23T11:31:34.861Z,10.15
2023-02-23T11:34:04.682Z,10.07
2023-02-23T11:36:34.442Z,10.35
2023-02-23T11:39:23.433Z,10.62
2023-02-23T11:42:05.267Z,10.77
2023-02-23T11:44:33.600Z,10.69
2023-02-23T11:47:01.226Z,10.18
2023-02-23T11:49:36.084Z,10.58
2023-02-23T11:52:03.175Z,10.31
2023-02-23T11:54:35.758Z,10.87
2023-02-23T11:57:02.748Z,11.03
2023-02-23T11:59:35.510Z,10.72
2023-02-23T12:02:23.053Z,11.34
2023-02-23T12:04:53.138Z,11.33
2023-02-23T12:07:42.995Z,11.60
2023-02-23T12:10:30.883Z,11.66
2023-02-23T12:13:08.517Z,11.73
2023-02-23T12:15:46.865Z,11.86
2023-02-23T12:18:45.185Z,12.26
2023-02-23T12:21:33.259Z,12.49
2023-02-23T12:24:22.985Z,12.21
2023-02-23T12:26:56.762Z,11.98
2023-02-23T12:29:41.816Z,12.23
2023-02-23T12:32:34.035Z,11.98
2023-02-23T12:35:14.984Z,11.73
2023-02-23T12:38:06.616Z,11.85
2023-02-23T12:40:37.349Z,11.27
2023-02-23T12:43:22.631Z,11.29
2023-02-23T12:45:53.354Z,11.53
2023-02-23T12:48:37.892Z,11.68
2023-02-23T12:51:22.710Z,11.75
2023-02-23T12:53:49.201Z,12.07
2023-02-23T12:56:33.308Z,12.20
2023-02-23T12:59:11.094Z,12.13
2023-02-23T13:02:12.010Z,12.28
2023-02-23T13:04:57.839Z,11.82
2023-02-23T13:07:35.173Z,11.75
2023-02-23T13:10:13.842Z,12.02
2023-02-23T13:12:49.376Z,12.03
2023-02-23T13:15:42.528Z,12.13
2023-02-23T13:18:23.931Z,12.33
2023-02-23T13:21:03.705Z,12.23
2023-02-23T13:23:47.214Z,12.34
2023-02-23T13:26:34.276Z,12.61
2023-02-23T13:29:09.015Z,12.53
2023-02-23T13:31:38.092Z,12.38
2023-02-23T13:34:10.107Z,12.18
2023-02-23T13:36:37.126Z,12.24
2023-02-23T13:40:00.691Z,12.45
2023-02-23T13:42:34.369Z,12.57
2023-02-23T13:45:31.392Z,12.48
2023-02-23T13:48:19.051Z,12.23
2023-02-23T13:51:08.771Z,12.12
2023-02-23T13:53:46.823Z,12.50
2023-02-23T13:56:24.954Z,12.27
2023-02-23T13:58:53.155Z,12.22
2023-02-23T14:01:29.564Z,12.53
2023-02-23T14:03:59.262Z,12.25
2023-02-23T14:06:28.835Z,12.19
2023-02-23T14:09:07.385Z,12.20
2023-02-23T14:11:41.140Z,12.19
2023-02-23T14:14:13.155Z,11.86
2023-02-23T14:16:39.935Z,11.86
2023-02-23T14:19:11.242Z,11.47
2023-02-23T14:21:57.200Z,11.81
2023-02-23T14:24:25.917Z,11.62
2023-02-23T14:27:07.129Z,11.70
2023-02-23T14:29:44.869Z,11.76
2023-02-23T14:32:11.417Z,11.75
2023-02-23T14:34:56.901Z,11.82
2023-02-23T14:37:32.226Z,11.60
2023-02-23T14:40:16.592Z,11.55
2023-02-23T14:42:49.488Z,11.44
2023-02-23T14:45:25.722Z,11.55
2023-02-23T14:47:55.164Z,11.43
2023-02-23T14:50:48.146Z,11.39
2023-02-23T14:53:20.841Z,11.31
2023-02-23T14:55:48.542Z,11.29
2023-02-23T14:58:33.510Z,11.31
2023-02-23T15:00:59.976Z,11.33
2023-02-23T15:03:26.421Z,11.45
2023-02-23T15:06:00.582Z,11.34
2023-02-23T15:08:30.734Z,11.25
2023-02-23T15:11:10.799Z,11.15
2023-02-23T15:13:42.148Z,11.16
2023-02-23T15:16:14.554Z,11.16
2023-02-23T15:19:30.726Z,11.16
2023-02-23T15:21:59.225Z,10.70
2023-02-23T15:24:41.016Z,10.83
2023-02-23T15:27:16.997Z,10.81
2023-02-23T15:29:43.418Z,10.45
2023-02-23T15:32:24.931Z,10.74
2023-02-23T15:34:53.160Z,10.66
2023-02-23T15:37:24.092Z,10.66
2023-02-23T15:39:56.979Z,10.48
2023-02-23T15:42:35.678Z,10.50
2023-02-23T15:45:04.908Z,10.73
2023-02-23T15:47:34.988Z,10.78
2023-02-23T15:50:14.302Z,10.93
2023-02-23T15:52:55.161Z,10.64
2023-02-23T15:55:29.029Z,10.41
2023-02-23T15:57:58.961Z,10.36
2023-02-23T16:00:32.718Z,10.31
2023-02-23T16:03:04.659Z,10.19
2023-02-23T16:05:45.311Z,9.62
2023-02-23T16:08:23.285Z,9.43
2023-02-23T16:11:00.340Z,9.22
2023-02-23T16:13:28.640Z,9.20
2023-02-23T16:15:56.167Z,8.86
2023-02-23T16:18:34.330Z,9.17
2023-02-23T16:21:01.861Z,9.15
2023-02-23T16:23:40.321Z,9.21
2023-02-23T16:26:12.142Z,8.88
2023-02-23T16:28:43.724Z,9.12
2023-02-23T16:31:28.306Z,9.20
2023-02-23T16:33:57.371Z,9.23
2023-02-23T16:36:35.032Z,8.99
2023-02-23T16:39:06.112Z,9.01
2023-02-23T16:41:34.655Z,8.83
2023-02-23T16:44:05.120Z,8.72
2023-02-23T16:47:02.859Z,9.01
2023-02-23T16:49:30.097Z,9.08
2023-02-23T16:51:58.719Z,8.78
2023-02-23T16:54:30.937Z,8.41
2023-02-23T16:57:06.017Z,7.90
2023-02-23T16:59:34.268Z,7.46
2023-02-23T17:02:03.777Z,7.59
2023-02-23T17:04:30.325Z,7.43
2023-02-23T17:07:00.829Z,7.50
2023-02-23T17:09:28.453Z,7.22
2023-02-23T17:11:57.108Z,7.32
2023-02-23T17:14:28.077Z,7.32
2023-02-23T17:16:54.755Z,6.74
2023-02-23T17:19:24.444Z,6.75
2023-02-23T17:21:52.395Z,6.81
2023-02-23T17:24:19.081Z,6.99
2023-02-23T17:26:47.639Z,6.48
2023-02-23T17:29:15.203Z,5.90
2023-02-23T17:31:41.917Z,6.37
2023-02-23T17:34:08.462Z,6.25
2023-02-23T17:36:34.842Z,6.07
2023-02-23T17:39:02.406Z,6.12
2023-02-23T17:41:28.896Z,5.60
2023-02-23T17:43:55.276Z,5.23
2023-02-23T17:46:28.189Z,5.18
2023-02-23T17:48:56.423Z,5.12
2023-02-23T17:51:23.928Z,5.35
2023-02-23T17:53:50.620Z,5.33
2023-02-23T17:56:19.864Z,4.96
2023-02-23T17:58:50.288Z,4.81
2023-02-23T18:01:17.793Z,4.80
2023-02-23T18:03:44.403Z,4.67
2023-02-23T18:06:12.635Z,4.80
2023-02-23T18:08:40.796Z,4.46
2023-02-23T18:11:08.963Z,4.76
2023-02-23T18:13:37.775Z,4.71
2023-02-23T18:16:09.753Z,4.40
2023-02-23T18:18:38.803Z,4.34
2023-02-23T18:21:11.580Z,4.36
2023-02-23T18:23:38.169Z,4.27
2023-02-23T18:26:07.542Z,4.17
2023-02-23T18:28:35.136Z,4.09
2023-02-23T18:31:04.024Z,3.95
2023-02-23T18:33:31.509Z,4.03
2023-02-23T18:35:58.191Z,3.73
2023-02-23T18:38:24.571Z,3.89
2023-02-23T18:40:51.065Z,3.76
2023-02-23T18:43:17.457Z,3.61
2023-02-23T18:45:44.909Z,3.43
2023-02-23T18:48:13.484Z,3.45
2023-02-23T18:50:41.023Z,3.78
2023-02-23T18:53:08.930Z,3.15
2023-02-23T18:55:37.142Z,3.46
2023-02-23T18:58:05.209Z,3.70
2023-02-23T19:00:37.017Z,3.61
2023-02-23T19:03:03.579Z,3.20
2023-02-23T19:05:31.094Z,3.10
2023-02-23T19:07:57.619Z,3.01
2023-02-23T19:10:27.342Z,2.58
2023-02-23T19:12:59.727Z,2.88
2023-02-23T19:15:26.315Z,2.98
2023-02-23T19:17:54.347Z,2.88
2023-02-23T19:20:23.327Z,2.75
2023-02-23T19:22:50.763Z,2.74
2023-02-23T19:25:18.563Z,2.86
2023-02-23T19:27:45.037Z,2.76
2023-02-23T19:30:12.245Z,2.68
2023-02-23T19:32:42.181Z,2.73
2023-02-23T19:35:10.944Z,2.70
2023-02-23T19:37:42.031Z,2.66
2023-02-23T19:40:09.261Z,2.60
2023-02-23T19:42:36.879Z,2.46
2023-02-23T19:45:03.751Z,2.63
2023-02-23T19:47:30.318Z,2.96
2023-02-23T19:49:56.755Z,2.44
2023-02-23T19:52:28.949Z,2.08
2023-02-23T19:54:55.422Z,2.17
2023-02-23T19:57:25.069Z,2.26
2023-02-23T19:59:51.470Z,2.36
2023-02-23T20:02:18.957Z,2.45
2023-02-23T20:04:49.510Z,2.86
2023-02-23T20:07:17.265Z,2.65
2023-02-23T20:09:44.406Z,1.78
2023-02-23T20:12:10.933Z,1.89
2023-02-23T20:14:39.665Z,2.15
2023-02-23T20:17:07.162Z,2.01
2023-02-23T20:19:33.751Z,1.98
2023-02-23T20:22:01.199Z,1.95
2023-02-23T20:24:27.766Z,1.92
2023-02-23T20:26:58.102Z,1.51
2023-02-23T20:29:27.993Z,1.91
2023-02-23T20:31:54.520Z,2.03
2023-02-23T20:34:24.387Z,2.22
2023-02-23T20:36:51.438Z,2.25
2023-02-23T20:39:19.091Z,2.23
2023-02-23T20:41:53.487Z,2.04
2023-02-23T20:44:23.290Z,1.81
2023-02-23T20:46:50.026Z,1.53
2023-02-23T20:49:19.008Z,1.37
2023-02-23T20:51:48.572Z,1.38
2023-02-23T20:54:16.296Z,1.75
2023-02-23T20:56:43.968Z,1.68
2023-02-23T20:59:15.492Z,1.61
2023-02-23T21:01:43.593Z,1.48
2023-02-23T21:04:13.248Z,1.23
2023-02-23T21:06:39.954Z,1.22
2023-02-23T21:09:12.359Z,1.04
2023-02-23T21:11:38.742Z,1.48
2023-02-23T21:14:08.337Z,1.14
2023-02-23T21:16:36.062Z,1.18
2023-02-23T21:19:05.348Z,1.01
2023-02-23T21:21:39.988Z,1.12
2023-02-23T21:24:06.961Z,0.75
2023-02-23T21:26:33.584Z,1.02
2023-02-23T21:29:00.102Z,1.03
2023-02-23T21:31:26.683Z,0.73
2023-02-23T21:33:53.409Z,0.82
2023-02-23T21:36:20.133Z,0.69
2023-02-23T21:38:48.602Z,0.60
2023-02-23T21:41:15.444Z,0.64
2023-02-23T21:43:44.532Z,0.91
2023-02-23T21:46:15.984Z,0.77
2023-02-23T21:48:43.568Z,0.78
2023-02-23T21:51:12.939Z,0.77
2023-02-23T21:53:39.845Z,0.63
2023-02-23T21:56:11.462Z,0.73
2023-02-23T21:58:43.435Z,0.73
2023-02-23T22:01:14.400Z,0.58
2023-02-23T22:03:44.940Z,0.57
2023-02-23T22:06:17.612Z,0.34
2023-02-23T22:08:44.927Z,0.50
2023-02-23T22:11:24.812Z,0.33
2023-02-23T22:13:59.715Z,0.56
2023-02-23T22:16:32.486Z,0.39
2023-02-23T22:19:03.773Z,0.20
2023-02-23T22:21:35.087Z,0.29
2023-02-23T22:24:05.291Z,0.13
2023-02-23T22:26:34.414Z,0.21
2023-02-23T22:29:01.052Z,0.11
2023-02-23T22:31:28.311Z,0.25
2023-02-23T22:33:54.883Z,0.16
2023-02-23T22:36:21.256Z,-0.05
2023-02-23T22:38:47.638Z,0.06
2023-02-23T22:41:14.215Z,-0.09
2023-02-23T22:43:47.589Z,-0.24
2023-02-23T22:46:16.189Z,0.03
2023-02-23T22:48:44.929Z,0.02
2023-02-23T22:51:14.282Z,-0.15
2023-02-23T22:53:40.780Z,-0.07
2023-02-23T22:56:08.433Z,-0.10
2023-02-23T22:58:36.251Z,-0.16
2023-02-23T23:01:06.282Z,-0.32
2023-02-23T23:03:41.549Z,0.07
2023-02-23T23:06:10.557Z,-0.04
2023-02-23T23:08:42.463Z,-0.09
2023-02-23T23:11:18.955Z,-0.11
2023-02-23T23:13:50.736Z,-0.06
2023-02-23T23:16:31.622Z,-0.05
2023-02-23T23:19:02.491Z,-0.33
2023-02-23T23:21:31.813Z,-0.49
2023-02-23T23:24:01.216Z,-0.26
2023-02-23T23:26:28.985Z,-0.30
2023-02-23T23:28:58.421Z,-0.52
2023-02-23T23:31:30.443Z,-0.45
2023-02-23T23:34:00.186Z,-0.64
2023-02-23T23:36:37.275Z,-0.56
2023-02-23T23:39:06.233Z,-0.51
2023-02-23T23:41:35.315Z,-0.53
2023-02-23T23:44:05.144Z,-0.50
2023-02-23T23:46:35.529Z,-0.55
2023-02-23T23:49:08.105Z,-0.52
2023-02-23T23:51:44.633Z,-0.65
2023-02-23T23:54:13.899Z,-0.63
2023-02-23T23:56:41.088Z,-0.81
2023-02-23T23:59:11.058Z,-0.86
